Azure — ZCEE2 — position and weather

sailwx.info

Track history (hours):
 
Tides and Currents Weather Stations Pressure Air Temp Water Temp Dewpoint Dewpoint Depression Visibility Wind Speed Wind Dir Waves Ship Positions

Azure

Last reported at 2017-Jul-24 07:58 UTC. Time now 2017-Jul-24 08:25 UTC.
Position N 58°58' E 005°44'.

Length 289 m; draft 8.6 m.

Type: Passenger vessel. MMSI: 310610000.

Date/timePositionNaut miles runAvg speedWind from/ knotsBaromVisibWave heightAir tempDewpointWater temp
2017-Jul-24 07:58N 58°58' E 005°44'0 0.0
2017-Jul-24 07:28N 58°58' E 005°44'0 0.0
2017-Jul-24 06:58N 58°58' E 005°44'0 0.0
2017-Jul-24 06:28N 58°58' E 005°44'0 0.0
2017-Jul-24 05:58N 58°58' E 005°44'0 0.4
2017-Jul-24 05:30N 58°59' E 005°44'2 4.8
2017-Jul-24 05:00N 59°00' E 005°41'5 9.1
2017-Jul-24 04:30N 59°02' E 005°32'815.8
2017-Jul-24 04:00N 58°54' E 005°32'612.1
2017-Jul-24 03:30N 58°49' E 005°26'816.8
2017-Jul-24 03:00N 58°42' E 005°18'917.4
2017-Jul-24 02:30N 58°34' E 005°11'917.4
2017-Jul-24 02:01N 58°25' E 005°10'8454.7
2017-Jul-24 02:00N 58°18' E 005°06'1 3.1 080 / 261011.710.8 16.612.115.0
2017-Jul-24 01:30N 58°17' E 005°07'13818.4
2017-Jul-23 18:00N 56°00' E 004°24'7518.7 270 / 61008.610.8 16.014.316.0
2017-Jul-23 14:00N 54°48' E 003°48'15617.3 250 / 101009.210.8 17.313.417.0
2017-Jul-23 05:00N 52°18' E 002°36'2918.0 230 / 191009.710.8 16.012.418.0
2017-Jul-23 03:22N 51°49' E 002°37'1020.5
2017-Jul-23 02:52N 51°41' E 002°26'720.6
2017-Jul-23 02:30N 51°35' E 002°19'1020.9
2017-Jul-23 02:01N 51°26' E 002°10'1020.7
2017-Jul-23 01:30N 51°16' E 002°06'1121.3
2017-Jul-23 01:00N 51°10' E 001°52'1122.0
2017-Jul-23 00:30N 51°02' E 001°39'1122.7
2017-Jul-23 00:00N 50°54' E 001°28'1222.1
2017-Jul-22 23:29N 50°43' E 001°21'4019.2
2017-Jul-22 21:24N 50°25' E 000°24'820.8
2017-Jul-22 21:00N 50°24' E 000°11'1020.6
2017-Jul-22 20:30N 50°23' W 000°05'1020.9
2017-Jul-22 20:00N 50°25' W 000°21'1020.0
2017-Jul-22 19:30N 50°30' W 000°35'1019.7
2017-Jul-22 19:00N 50°36' W 000°47'918.3
2017-Jul-22 18:30N 50°42' W 000°58'713.6
2017-Jul-22 18:00N 50°45' W 001°07'714.9
2017-Jul-22 17:30N 50°48' W 001°18'5 9.6
2017-Jul-22 17:01N 50°52' W 001°22'3 6.5
2017-Jul-22 16:30N 50°54' W 001°26'0 0.0
2017-Jul-22 15:49N 50°54' W 001°26'0 0.0
2017-Jul-22 15:28N 50°54' W 001°26'0 0.0
2017-Jul-22 14:58N 50°54' W 001°26'0 0.0
2017-Jul-22 13:58N 50°54' W 001°26'0 0.0
2017-Jul-22 13:28N 50°54' W 001°26'0 0.0
2017-Jul-22 12:55N 50°54' W 001°26'0 0.0
2017-Jul-22 12:28N 50°54' W 001°26'0 0.0
2017-Jul-22 11:58N 50°54' W 001°26'0 0.0
2017-Jul-22 11:28N 50°54' W 001°26'0 0.0
2017-Jul-22 10:58N 50°54' W 001°26'0 0.0
2017-Jul-22 10:22N 50°54' W 001°26'0 0.0
2017-Jul-22 09:55N 50°54' W 001°26'0 0.0
2017-Jul-22 09:28N 50°54' W 001°26'0 0.0
2017-Jul-22 08:55N 50°54' W 001°26'0 0.0
2017-Jul-22 08:25N 50°54' W 001°26'0 0.0
2017-Jul-22 07:58N 50°54' W 001°26'0 0.0
2017-Jul-22 07:28N 50°54' W 001°26'0 0.0
2017-Jul-22 06:58N 50°54' W 001°26'0 0.0
2017-Jul-22 06:28N 50°54' W 001°26'0 0.0
2017-Jul-22 05:58N 50°54' W 001°26'0 0.0
2017-Jul-22 05:28N 50°54' W 001°26'0 0.5
2017-Jul-22 05:00N 50°54' W 001°26'2 3.3
2017-Jul-22 04:30N 50°53' W 001°24'5 9.9
2017-Jul-22 04:00N 50°50' W 001°19'4 8.3
2017-Jul-22 03:31N 50°46' W 001°15'917.2
2017-Jul-22 03:00N 50°44' W 001°02'5 9.7
2017-Jul-22 02:30N 50°39' W 000°58'510.1
2017-Jul-22 02:00N 50°35' W 001°02'611.0
2017-Jul-22 01:30N 50°31' W 001°08'1611.0
2017-Jul-22 00:03N 50°26' W 001°32'110.7
2017-Jul-21 23:59N 50°26' W 001°33'510.9
2017-Jul-21 23:29N 50°24' W 001°41'511.0
2017-Jul-21 23:00N 50°22' W 001°49'511.0
2017-Jul-21 22:30N 50°21' W 001°57'713.0
2017-Jul-21 22:00N 50°19' W 002°07'713.8
2017-Jul-21 21:29N 50°17' W 002°18'714.5
2017-Jul-21 21:00N 50°16' W 002°28'714.8
2017-Jul-21 20:30N 50°15' W 002°40'714.9
2017-Jul-21 20:00N 50°13' W 002°51'815.3
2017-Jul-21 19:30N 50°10' W 003°02'815.4
2017-Jul-21 19:00N 50°06' W 003°12'815.4
2017-Jul-21 18:30N 50°01' W 003°21'815.5
2017-Jul-21 18:00N 49°56' W 003°31'815.3
2017-Jul-21 17:30N 49°50' W 003°38'815.2
2017-Jul-21 17:00N 49°44' W 003°46'714.9
2017-Jul-21 16:30N 49°38' W 003°51'814.9
2017-Jul-21 15:59N 49°32' W 003°58'815.5
2017-Jul-21 15:28N 49°26' W 004°07'5515.7
2017-Jul-21 11:58N 48°45' W 005°03'2019.8
2017-Jul-21 10:58N 48°30' W 005°23'2119.0
2017-Jul-21 09:53N 48°13' W 005°40'15319.4
2017-Jul-21 02:00N 46°00' W 007°30'40117.2 230 / 221013.210.8 19.013.622.0
2017-Jul-20 02:41N 39°32' W 009°51'817.6
2017-Jul-20 02:15N 39°25' W 009°51'417.7
2017-Jul-20 02:00N 39°20' W 009°51'9622.1
2017-Jul-20 02:00N 39°12' W 009°48'3 5.8 350 / 241017.610.8 19.013.822.0
2017-Jul-20 01:30N 39°11' W 009°52'918.0
2017-Jul-20 01:01N 39°02' W 009°52'917.9
2017-Jul-20 00:30N 38°53' W 009°51'917.7
2017-Jul-20 00:00N 38°45' W 009°50'918.0
2017-Jul-19 23:30N 38°36' W 009°48'918.1
2017-Jul-19 23:01N 38°27' W 009°46'917.3
2017-Jul-19 22:31N 38°19' W 009°43'918.1
2017-Jul-19 22:00N 38°10' W 009°40'918.2
2017-Jul-19 21:31N 38°01' W 009°36'917.9
2017-Jul-19 21:01N 37°53' W 009°33'918.2
2017-Jul-19 20:31N 37°44' W 009°32'918.1
2017-Jul-19 20:01N 37°35' W 009°30'917.8
2017-Jul-19 19:30N 37°26' W 009°27'917.9
2017-Jul-19 19:00N 37°17' W 009°24'917.6
2017-Jul-19 18:30N 37°09' W 009°22'4315.8
2017-Jul-19 15:48N 36°40' W 008°43'517.4
2017-Jul-19 15:30N 36°38' W 008°37'3724.6
2017-Jul-19 14:00N 36°24' W 007°54'11216.5 280 / 201016.010.8 21.017.822.0
2017-Jul-19 07:14N 35°58' W 005°39'9117.4
2017-Jul-19 02:00N 36°12' W 003°48'7116.6 1012.810.8
2017-Jul-18 21:43N 36°26' W 002°22'1017.6
2017-Jul-18 21:10N 36°27' W 002°10'1317.9
2017-Jul-18 20:26N 36°33' W 001°55'1418.0
2017-Jul-18 19:38N 36°44' W 001°44'218.1
2017-Jul-18 19:30N 36°46' W 001°43'2818.2
2017-Jul-18 18:00N 37°08' W 001°22'1218.1
2017-Jul-18 17:20N 37°18' W 001°14'19 1.6
2017-Jul-18 05:39N 37°32' W 000°58'417.4
2017-Jul-18 05:23N 37°32' W 000°52'820.5
2017-Jul-18 04:59N 37°31' W 000°42'1018.5
2017-Jul-18 04:27N 37°37' W 000°32'920.9
2017-Jul-18 04:00N 37°45' W 000°25'1120.9
2017-Jul-18 03:29N 37°54' W 000°17'1021.1
2017-Jul-18 03:00N 38°02' W 000°10'1020.8
2017-Jul-18 02:30N 38°11' W 000°03'1019.7
2017-Jul-18 02:00N 38°19' E 000°04'5459.4
2017-Jul-18 02:00N 38°24' E 000°06'611.2 050 / 101016.727.0 25.020.429.0
2017-Jul-18 01:25N 38°29' E 000°12'1119.2
2017-Jul-18 00:50N 38°38' E 000°19'2718.9
2017-Jul-17 23:24N 39°02' E 000°36'919.6
2017-Jul-17 22:56N 39°10' E 000°42'919.5
2017-Jul-17 22:30N 39°18' E 000°46'1119.5
2017-Jul-17 21:56N 39°28' E 000°52'1119.3
2017-Jul-17 21:20N 39°38' E 001°00'719.4
2017-Jul-17 21:00N 39°43' E 001°05'1019.5
2017-Jul-17 20:30N 39°52' E 001°11'1019.5
2017-Jul-17 20:00N 40°00' E 001°17'1019.5
2017-Jul-17 19:30N 40°09' E 001°22'1019.6
2017-Jul-17 19:00N 40°18' E 001°28'1019.5
2017-Jul-17 18:30N 40°26' E 001°34'1019.4
2017-Jul-17 18:00N 40°34' E 001°41'1019.2
2017-Jul-17 17:30N 40°43' E 001°47'1019.2
2017-Jul-17 17:00N 40°51' E 001°53'1019.3
2017-Jul-17 16:30N 40°60' E 001°59'1019.3
2017-Jul-17 16:00N 41°08' E 002°05'918.5
2017-Jul-17 15:30N 41°17' E 002°11'5 8.4
2017-Jul-17 14:55N 41°22' E 002°11'0 0.3
2017-Jul-17 14:27N 41°22' E 002°11'0 0.0
2017-Jul-17 12:58N 41°22' E 002°11'0 0.0
2017-Jul-17 11:15N 41°22' E 002°11'0 0.0
2017-Jul-17 10:58N 41°22' E 002°11'0 0.0
2017-Jul-17 10:22N 41°22' E 002°11'0 0.0
2017-Jul-17 09:57N 41°22' E 002°11'0 0.0
2017-Jul-17 09:27N 41°22' E 002°11'0 0.0
2017-Jul-17 08:57N 41°22' E 002°11'0 0.0
2017-Jul-17 07:46N 41°22' E 002°11'0 0.0
2017-Jul-17 07:30N 41°22' E 002°11'0 0.0
2017-Jul-17 06:48N 41°22' E 002°11'0 0.0
2017-Jul-17 06:18N 41°22' E 002°11'0 0.1
2017-Jul-17 06:00N 41°22' E 002°11'2 3.8
2017-Jul-17 05:29N 41°20' E 002°10'5 9.5
2017-Jul-17 05:00N 41°16' E 002°13'1019.2
2017-Jul-17 04:30N 41°20' E 002°25'1020.9
2017-Jul-17 04:00N 41°25' E 002°37'1020.9
2017-Jul-17 03:30N 41°29' E 002°49'1220.7
2017-Jul-17 02:55N 41°35' E 003°04'820.7
2017-Jul-17 02:31N 41°39' E 003°14'1020.7
2017-Jul-17 02:00N 41°44' E 003°26'4269.4
2017-Jul-17 02:00N 41°42' E 003°30'1018.9 130 / 131019.227.0 21.520.124.0
2017-Jul-17 01:29N 41°49' E 003°39'1020.7
2017-Jul-17 01:00N 41°54' E 003°50'1020.3
2017-Jul-17 00:30N 41°59' E 004°02'1020.6
2017-Jul-17 00:00N 42°04' E 004°14'1120.7
2017-Jul-16 23:29N 42°09' E 004°27'1220.7
2017-Jul-16 22:55N 42°15' E 004°41'3621.0
2017-Jul-16 21:11N 42°31' E 005°25'520.5
2017-Jul-16 20:55N 42°33' E 005°32'3520.1
2017-Jul-16 19:11N 42°48' E 006°14'520.1
2017-Jul-16 18:56N 42°50' E 006°21'819.8
2017-Jul-16 18:30N 42°55' E 006°31'1020.1
2017-Jul-16 18:00N 43°02' E 006°40'1020.3
2017-Jul-16 17:30N 43°10' E 006°49'1320.2
2017-Jul-16 16:53N 43°19' E 007°01'819.9
2017-Jul-16 16:30N 43°24' E 007°08'1120.2
2017-Jul-16 15:57N 43°34' E 007°17'29 2.3
2017-Jul-16 03:19N 43°42' E 007°55'411.6
2017-Jul-16 02:59N 43°42' E 008°00'611.6
2017-Jul-16 02:30N 43°41' E 008°08'611.4
2017-Jul-16 02:00N 43°41' E 008°16'5784.4
2017-Jul-16 02:00N 43°36' E 008°18'612.7 070 / 121016.310.8 25.217.426.0
2017-Jul-16 01:30N 43°41' E 008°24'611.5
2017-Jul-16 01:00N 43°40' E 008°32'611.5
2017-Jul-16 00:30N 43°40' E 008°39'611.6
2017-Jul-16 00:00N 43°39' E 008°47'611.7
2017-Jul-15 23:30N 43°39' E 008°56'611.6
2017-Jul-15 23:00N 43°38' E 009°04'611.4
2017-Jul-15 22:30N 43°38' E 009°11'611.2
2017-Jul-15 22:00N 43°37' E 009°19'611.2
2017-Jul-15 21:30N 43°35' E 009°26'611.4
2017-Jul-15 21:00N 43°33' E 009°34'611.7
2017-Jul-15 20:30N 43°33' E 009°42'611.4
2017-Jul-15 20:00N 43°32' E 009°49'611.6
2017-Jul-15 19:30N 43°31' E 009°57'611.5
2017-Jul-15 19:01N 43°30' E 010°05'611.5
2017-Jul-15 18:31N 43°31' E 010°13'4 7.6
2017-Jul-15 18:01N 43°33' E 010°18'0 0.1
2017-Jul-15 17:26N 43°33' E 010°18'0 0.0
2017-Jul-15 16:59N 43°33' E 010°18'0 0.0
2017-Jul-15 16:23N 43°33' E 010°18'0 0.0
2017-Jul-15 15:59N 43°33' E 010°18'0 0.0
2017-Jul-15 15:29N 43°33' E 010°18'0 0.0
2017-Jul-15 14:59N 43°33' E 010°18'0 0.0
2017-Jul-15 13:59N 43°33' E 010°18'0 0.0
2017-Jul-15 13:29N 43°33' E 010°18'0 0.0
2017-Jul-15 12:59N 43°33' E 010°18'0 0.0
2017-Jul-15 12:29N 43°33' E 010°18'0 0.0
2017-Jul-15 11:59N 43°33' E 010°18'0 0.0
2017-Jul-15 11:29N 43°33' E 010°18'0 0.0
2017-Jul-15 10:59N 43°33' E 010°18'0 0.0
2017-Jul-15 10:29N 43°33' E 010°18'0 0.0
2017-Jul-15 09:59N 43°33' E 010°18'0 0.0
2017-Jul-15 09:26N 43°33' E 010°18'0 0.0
2017-Jul-15 08:59N 43°33' E 010°18'0 0.0
2017-Jul-15 08:20N 43°33' E 010°18'0 0.0
2017-Jul-15 07:59N 43°33' E 010°18'0 0.0
2017-Jul-15 07:29N 43°33' E 010°18'0 0.0
2017-Jul-15 06:59N 43°33' E 010°18'0 0.0
2017-Jul-15 06:29N 43°33' E 010°18'0 0.0
2017-Jul-15 05:56N 43°33' E 010°18'0 0.0
2017-Jul-15 05:30N 43°33' E 010°18'1 1.1
2017-Jul-15 05:00N 43°33' E 010°17'5 9.2
2017-Jul-15 04:30N 43°29' E 010°14'816.7
2017-Jul-15 04:00N 43°21' E 010°09'713.8
2017-Jul-15 03:30N 43°17' E 010°02'815.4
2017-Jul-15 03:00N 43°16' E 009°51'815.5
2017-Jul-15 02:30N 43°15' E 009°41'815.7
2017-Jul-15 02:00N 43°15' E 009°30'1019.4
2017-Jul-15 01:30N 43°15' E 009°17'1019.7
2017-Jul-15 01:00N 43°10' E 009°05'1020.2
2017-Jul-15 00:30N 43°03' E 008°55'1020.5
2017-Jul-15 00:00N 42°56' E 008°44'1020.8
2017-Jul-14 23:30N 42°49' E 008°34'1020.6
2017-Jul-14 23:00N 42°41' E 008°25'1019.2
2017-Jul-14 22:30N 42°33' E 008°18'  
Track history (hours):
 
Tides and Currents Weather Stations Pressure Air Temp Water Temp Dewpoint Dewpoint Depression Visibility Wind Speed Wind Dir Waves Ship Positions

Azure

Last reported at 2017-Jul-24 07:58 UTC. Time now 2017-Jul-24 08:25 UTC.
Position N 58°58' E 005°44'.

Length 289 m; draft 8.6 m.

Type: Passenger vessel. MMSI: 310610000.

Date/timePositionNaut miles runAvg speedWind from/ knotsBaromVisibWave heightAir tempDewpointWater temp
2017-Jul-24 07:58N 58°58' E 005°44'0 0.0
2017-Jul-24 07:28N 58°58' E 005°44'0 0.0
2017-Jul-24 06:58N 58°58' E 005°44'0 0.0
2017-Jul-24 06:28N 58°58' E 005°44'0 0.0
2017-Jul-24 05:58N 58°58' E 005°44'0 0.4
2017-Jul-24 05:30N 58°59' E 005°44'2 4.8
2017-Jul-24 05:00N 59°00' E 005°41'5 9.1
2017-Jul-24 04:30N 59°02' E 005°32'815.8
2017-Jul-24 04:00N 58°54' E 005°32'612.1
2017-Jul-24 03:30N 58°49' E 005°26'816.8
2017-Jul-24 03:00N 58°42' E 005°18'917.4
2017-Jul-24 02:30N 58°34' E 005°11'917.4
2017-Jul-24 02:01N 58°25' E 005°10'8454.7
2017-Jul-24 02:00N 58°18' E 005°06'1 3.1 080 / 261011.710.8 16.612.115.0
2017-Jul-24 01:30N 58°17' E 005°07'13818.4
2017-Jul-23 18:00N 56°00' E 004°24'7518.7 270 / 61008.610.8 16.014.316.0
2017-Jul-23 14:00N 54°48' E 003°48'15617.3 250 / 101009.210.8 17.313.417.0
2017-Jul-23 05:00N 52°18' E 002°36'2918.0 230 / 191009.710.8 16.012.418.0
2017-Jul-23 03:22N 51°49' E 002°37'1020.5
2017-Jul-23 02:52N 51°41' E 002°26'720.6
2017-Jul-23 02:30N 51°35' E 002°19'1020.9
2017-Jul-23 02:01N 51°26' E 002°10'1020.7
2017-Jul-23 01:30N 51°16' E 002°06'1121.3
2017-Jul-23 01:00N 51°10' E 001°52'1122.0
2017-Jul-23 00:30N 51°02' E 001°39'1122.7
2017-Jul-23 00:00N 50°54' E 001°28'1222.1
2017-Jul-22 23:29N 50°43' E 001°21'4019.2
2017-Jul-22 21:24N 50°25' E 000°24'820.8
2017-Jul-22 21:00N 50°24' E 000°11'1020.6
2017-Jul-22 20:30N 50°23' W 000°05'1020.9
2017-Jul-22 20:00N 50°25' W 000°21'1020.0
2017-Jul-22 19:30N 50°30' W 000°35'1019.7
2017-Jul-22 19:00N 50°36' W 000°47'918.3
2017-Jul-22 18:30N 50°42' W 000°58'713.6
2017-Jul-22 18:00N 50°45' W 001°07'714.9
2017-Jul-22 17:30N 50°48' W 001°18'5 9.6
2017-Jul-22 17:01N 50°52' W 001°22'3 6.5
2017-Jul-22 16:30N 50°54' W 001°26'0 0.0
2017-Jul-22 15:49N 50°54' W 001°26'0 0.0
2017-Jul-22 15:28N 50°54' W 001°26'0 0.0
2017-Jul-22 14:58N 50°54' W 001°26'0 0.0
2017-Jul-22 13:58N 50°54' W 001°26'0 0.0
2017-Jul-22 13:28N 50°54' W 001°26'0 0.0
2017-Jul-22 12:55N 50°54' W 001°26'0 0.0
2017-Jul-22 12:28N 50°54' W 001°26'0 0.0
2017-Jul-22 11:58N 50°54' W 001°26'0 0.0
2017-Jul-22 11:28N 50°54' W 001°26'0 0.0
2017-Jul-22 10:58N 50°54' W 001°26'0 0.0
2017-Jul-22 10:22N 50°54' W 001°26'0 0.0
2017-Jul-22 09:55N 50°54' W 001°26'0 0.0
2017-Jul-22 09:28N 50°54' W 001°26'0 0.0
2017-Jul-22 08:55N 50°54' W 001°26'0 0.0
2017-Jul-22 08:25N 50°54' W 001°26'0 0.0
2017-Jul-22 07:58N 50°54' W 001°26'0 0.0
2017-Jul-22 07:28N 50°54' W 001°26'0 0.0
2017-Jul-22 06:58N 50°54' W 001°26'0 0.0
2017-Jul-22 06:28N 50°54' W 001°26'0 0.0
2017-Jul-22 05:58N 50°54' W 001°26'0 0.0
2017-Jul-22 05:28N 50°54' W 001°26'0 0.5
2017-Jul-22 05:00N 50°54' W 001°26'2 3.3
2017-Jul-22 04:30N 50°53' W 001°24'5 9.9
2017-Jul-22 04:00N 50°50' W 001°19'4 8.3
2017-Jul-22 03:31N 50°46' W 001°15'917.2
2017-Jul-22 03:00N 50°44' W 001°02'5 9.7
2017-Jul-22 02:30N 50°39' W 000°58'510.1
2017-Jul-22 02:00N 50°35' W 001°02'611.0
2017-Jul-22 01:30N 50°31' W 001°08'1611.0
2017-Jul-22 00:03N 50°26' W 001°32'110.7
2017-Jul-21 23:59N 50°26' W 001°33'510.9
2017-Jul-21 23:29N 50°24' W 001°41'511.0
2017-Jul-21 23:00N 50°22' W 001°49'511.0
2017-Jul-21 22:30N 50°21' W 001°57'713.0
2017-Jul-21 22:00N 50°19' W 002°07'713.8
2017-Jul-21 21:29N 50°17' W 002°18'714.5
2017-Jul-21 21:00N 50°16' W 002°28'714.8
2017-Jul-21 20:30N 50°15' W 002°40'714.9
2017-Jul-21 20:00N 50°13' W 002°51'815.3
2017-Jul-21 19:30N 50°10' W 003°02'815.4
2017-Jul-21 19:00N 50°06' W 003°12'815.4
2017-Jul-21 18:30N 50°01' W 003°21'815.5
2017-Jul-21 18:00N 49°56' W 003°31'815.3
2017-Jul-21 17:30N 49°50' W 003°38'815.2
2017-Jul-21 17:00N 49°44' W 003°46'714.9
2017-Jul-21 16:30N 49°38' W 003°51'814.9
2017-Jul-21 15:59N 49°32' W 003°58'815.5
2017-Jul-21 15:28N 49°26' W 004°07'5515.7
2017-Jul-21 11:58N 48°45' W 005°03'2019.8
2017-Jul-21 10:58N 48°30' W 005°23'2119.0
2017-Jul-21 09:53N 48°13' W 005°40'15319.4
2017-Jul-21 02:00N 46°00' W 007°30'40117.2 230 / 221013.210.8 19.013.622.0
2017-Jul-20 02:41N 39°32' W 009°51'817.6
2017-Jul-20 02:15N 39°25' W 009°51'417.7
2017-Jul-20 02:00N 39°20' W 009°51'9622.1
2017-Jul-20 02:00N 39°12' W 009°48'3 5.8 350 / 241017.610.8 19.013.822.0
2017-Jul-20 01:30N 39°11' W 009°52'918.0
2017-Jul-20 01:01N 39°02' W 009°52'917.9
2017-Jul-20 00:30N 38°53' W 009°51'917.7
2017-Jul-20 00:00N 38°45' W 009°50'918.0
2017-Jul-19 23:30N 38°36' W 009°48'918.1
2017-Jul-19 23:01N 38°27' W 009°46'917.3
2017-Jul-19 22:31N 38°19' W 009°43'918.1
2017-Jul-19 22:00N 38°10' W 009°40'918.2
2017-Jul-19 21:31N 38°01' W 009°36'917.9
2017-Jul-19 21:01N 37°53' W 009°33'918.2
2017-Jul-19 20:31N 37°44' W 009°32'918.1
2017-Jul-19 20:01N 37°35' W 009°30'917.8
2017-Jul-19 19:30N 37°26' W 009°27'917.9
2017-Jul-19 19:00N 37°17' W 009°24'917.6
2017-Jul-19 18:30N 37°09' W 009°22'4315.8
2017-Jul-19 15:48N 36°40' W 008°43'517.4
2017-Jul-19 15:30N 36°38' W 008°37'3724.6
2017-Jul-19 14:00N 36°24' W 007°54'11216.5 280 / 201016.010.8 21.017.822.0
2017-Jul-19 07:14N 35°58' W 005°39'9117.4
2017-Jul-19 02:00N 36°12' W 003°48'7116.6 1012.810.8
2017-Jul-18 21:43N 36°26' W 002°22'1017.6
2017-Jul-18 21:10N 36°27' W 002°10'1317.9
2017-Jul-18 20:26N 36°33' W 001°55'1418.0
2017-Jul-18 19:38N 36°44' W 001°44'218.1
2017-Jul-18 19:30N 36°46' W 001°43'2818.2
2017-Jul-18 18:00N 37°08' W 001°22'1218.1
2017-Jul-18 17:20N 37°18' W 001°14'19 1.6
2017-Jul-18 05:39N 37°32' W 000°58'417.4
2017-Jul-18 05:23N 37°32' W 000°52'820.5
2017-Jul-18 04:59N 37°31' W 000°42'1018.5
2017-Jul-18 04:27N 37°37' W 000°32'920.9
2017-Jul-18 04:00N 37°45' W 000°25'1120.9
2017-Jul-18 03:29N 37°54' W 000°17'1021.1
2017-Jul-18 03:00N 38°02' W 000°10'1020.8
2017-Jul-18 02:30N 38°11' W 000°03'1019.7
2017-Jul-18 02:00N 38°19' E 000°04'5459.4
2017-Jul-18 02:00N 38°24' E 000°06'611.2 050 / 101016.727.0 25.020.429.0
2017-Jul-18 01:25N 38°29' E 000°12'1119.2
2017-Jul-18 00:50N 38°38' E 000°19'2718.9
2017-Jul-17 23:24N 39°02' E 000°36'919.6
2017-Jul-17 22:56N 39°10' E 000°42'919.5
2017-Jul-17 22:30N 39°18' E 000°46'1119.5
2017-Jul-17 21:56N 39°28' E 000°52'1119.3
2017-Jul-17 21:20N 39°38' E 001°00'719.4
2017-Jul-17 21:00N 39°43' E 001°05'1019.5
2017-Jul-17 20:30N 39°52' E 001°11'1019.5
2017-Jul-17 20:00N 40°00' E 001°17'1019.5
2017-Jul-17 19:30N 40°09' E 001°22'1019.6
2017-Jul-17 19:00N 40°18' E 001°28'1019.5
2017-Jul-17 18:30N 40°26' E 001°34'1019.4
2017-Jul-17 18:00N 40°34' E 001°41'1019.2
2017-Jul-17 17:30N 40°43' E 001°47'1019.2
2017-Jul-17 17:00N 40°51' E 001°53'1019.3
2017-Jul-17 16:30N 40°60' E 001°59'1019.3
2017-Jul-17 16:00N 41°08' E 002°05'918.5
2017-Jul-17 15:30N 41°17' E 002°11'5 8.4
2017-Jul-17 14:55N 41°22' E 002°11'0 0.3
2017-Jul-17 14:27N 41°22' E 002°11'0 0.0
2017-Jul-17 12:58N 41°22' E 002°11'0 0.0
2017-Jul-17 11:15N 41°22' E 002°11'0 0.0
2017-Jul-17 10:58N 41°22' E 002°11'0 0.0
2017-Jul-17 10:22N 41°22' E 002°11'0 0.0
2017-Jul-17 09:57N 41°22' E 002°11'0 0.0
2017-Jul-17 09:27N 41°22' E 002°11'0 0.0
2017-Jul-17 08:57N 41°22' E 002°11'0 0.0
2017-Jul-17 07:46N 41°22' E 002°11'0 0.0
2017-Jul-17 07:30N 41°22' E 002°11'0 0.0
2017-Jul-17 06:48N 41°22' E 002°11'0 0.0
2017-Jul-17 06:18N 41°22' E 002°11'0 0.1
2017-Jul-17 06:00N 41°22' E 002°11'2 3.8
2017-Jul-17 05:29N 41°20' E 002°10'5 9.5
2017-Jul-17 05:00N 41°16' E 002°13'1019.2
2017-Jul-17 04:30N 41°20' E 002°25'1020.9
2017-Jul-17 04:00N 41°25' E 002°37'1020.9
2017-Jul-17 03:30N 41°29' E 002°49'1220.7
2017-Jul-17 02:55N 41°35' E 003°04'820.7
2017-Jul-17 02:31N 41°39' E 003°14'1020.7
2017-Jul-17 02:00N 41°44' E 003°26'4269.4
2017-Jul-17 02:00N 41°42' E 003°30'1018.9 130 / 131019.227.0 21.520.124.0
2017-Jul-17 01:29N 41°49' E 003°39'1020.7
2017-Jul-17 01:00N 41°54' E 003°50'1020.3
2017-Jul-17 00:30N 41°59' E 004°02'1020.6
2017-Jul-17 00:00N 42°04' E 004°14'1120.7
2017-Jul-16 23:29N 42°09' E 004°27'1220.7
2017-Jul-16 22:55N 42°15' E 004°41'3621.0
2017-Jul-16 21:11N 42°31' E 005°25'520.5
2017-Jul-16 20:55N 42°33' E 005°32'3520.1
2017-Jul-16 19:11N 42°48' E 006°14'520.1
2017-Jul-16 18:56N 42°50' E 006°21'819.8
2017-Jul-16 18:30N 42°55' E 006°31'1020.1
2017-Jul-16 18:00N 43°02' E 006°40'1020.3
2017-Jul-16 17:30N 43°10' E 006°49'1320.2
2017-Jul-16 16:53N 43°19' E 007°01'819.9
2017-Jul-16 16:30N 43°24' E 007°08'1120.2
2017-Jul-16 15:57N 43°34' E 007°17'29 2.3
2017-Jul-16 03:19N 43°42' E 007°55'411.6
2017-Jul-16 02:59N 43°42' E 008°00'611.6
2017-Jul-16 02:30N 43°41' E 008°08'611.4
2017-Jul-16 02:00N 43°41' E 008°16'5784.4
2017-Jul-16 02:00N 43°36' E 008°18'612.7 070 / 121016.310.8 25.217.426.0
2017-Jul-16 01:30N 43°41' E 008°24'611.5
2017-Jul-16 01:00N 43°40' E 008°32'611.5
2017-Jul-16 00:30N 43°40' E 008°39'611.6
2017-Jul-16 00:00N 43°39' E 008°47'611.7
2017-Jul-15 23:30N 43°39' E 008°56'611.6
2017-Jul-15 23:00N 43°38' E 009°04'611.4
2017-Jul-15 22:30N 43°38' E 009°11'611.2
2017-Jul-15 22:00N 43°37' E 009°19'611.2
2017-Jul-15 21:30N 43°35' E 009°26'611.4
2017-Jul-15 21:00N 43°33' E 009°34'611.7
2017-Jul-15 20:30N 43°33' E 009°42'611.4
2017-Jul-15 20:00N 43°32' E 009°49'611.6
2017-Jul-15 19:30N 43°31' E 009°57'611.5
2017-Jul-15 19:01N 43°30' E 010°05'611.5
2017-Jul-15 18:31N 43°31' E 010°13'4 7.6
2017-Jul-15 18:01N 43°33' E 010°18'0 0.1
2017-Jul-15 17:26N 43°33' E 010°18'0 0.0
2017-Jul-15 16:59N 43°33' E 010°18'0 0.0
2017-Jul-15 16:23N 43°33' E 010°18'0 0.0
2017-Jul-15 15:59N 43°33' E 010°18'0 0.0
2017-Jul-15 15:29N 43°33' E 010°18'0 0.0
2017-Jul-15 14:59N 43°33' E 010°18'0 0.0
2017-Jul-15 13:59N 43°33' E 010°18'0 0.0
2017-Jul-15 13:29N 43°33' E 010°18'0 0.0
2017-Jul-15 12:59N 43°33' E 010°18'0 0.0
2017-Jul-15 12:29N 43°33' E 010°18'0 0.0
2017-Jul-15 11:59N 43°33' E 010°18'0 0.0
2017-Jul-15 11:29N 43°33' E 010°18'0 0.0
2017-Jul-15 10:59N 43°33' E 010°18'0 0.0
2017-Jul-15 10:29N 43°33' E 010°18'0 0.0
2017-Jul-15 09:59N 43°33' E 010°18'0 0.0
2017-Jul-15 09:26N 43°33' E 010°18'0 0.0
2017-Jul-15 08:59N 43°33' E 010°18'0 0.0
2017-Jul-15 08:20N 43°33' E 010°18'0 0.0
2017-Jul-15 07:59N 43°33' E 010°18'0 0.0
2017-Jul-15 07:29N 43°33' E 010°18'0 0.0
2017-Jul-15 06:59N 43°33' E 010°18'0 0.0
2017-Jul-15 06:29N 43°33' E 010°18'0 0.0
2017-Jul-15 05:56N 43°33' E 010°18'0 0.0
2017-Jul-15 05:30N 43°33' E 010°18'1 1.1
2017-Jul-15 05:00N 43°33' E 010°17'5 9.2
2017-Jul-15 04:30N 43°29' E 010°14'816.7
2017-Jul-15 04:00N 43°21' E 010°09'713.8
2017-Jul-15 03:30N 43°17' E 010°02'815.4
2017-Jul-15 03:00N 43°16' E 009°51'815.5
2017-Jul-15 02:30N 43°15' E 009°41'815.7
2017-Jul-15 02:00N 43°15' E 009°30'1019.4
2017-Jul-15 01:30N 43°15' E 009°17'1019.7
2017-Jul-15 01:00N 43°10' E 009°05'1020.2
2017-Jul-15 00:30N 43°03' E 008°55'1020.5
2017-Jul-15 00:00N 42°56' E 008°44'1020.8
2017-Jul-14 23:30N 42°49' E 008°34'1020.6
2017-Jul-14 23:00N 42°41' E 008°25'1019.2
2017-Jul-14 22:30N 42°33' E 008°18'  

Dump ship's entire track history